Observation data for Paducah on 04/23/2019      Previous  Date  Next       Current Mesonet Observations  Soil Data  Daily Summary Page  Observations in Plain Language
KPAD 230500Z 36004KT 16/15 A2998 RMK A01 T01570146  RH  097%=      5-min Rain = 0
KPAD 230505Z 23012G26KT 16/15 A2999 RMK A01 T01580147  RH  097%=      5-min Rain = 0.04
KPAD 230510Z 27014G25KT 16/15 A30 RMK A01 T01570146  RH  097%=      5-min Rain = 0.06
KPAD 230515Z 33006G13KT 16/15 A30 RMK A01 T01580146  RH  097%=      5-min Rain = 0.06
KPAD 230520Z 26005G10KT 16/15 A3001 RMK A01 T01580145  RH  097%=      5-min Rain = 0.1
KPAD 230525Z 30006G13KT 15/14 A3001 RMK A01 T01530140  RH  096%=      5-min Rain = 0.06
KPAD 230530Z 02007G12KT 15/14 A30 RMK A01 T01510139  RH  097%=      5-min Rain = 0.04
KPAD 230535Z 01009G15KT 15/14 A3001 RMK A01 T01510140  RH  097%=      5-min Rain = 0.01
KPAD 230540Z 35012KT 15/14 A3002 RMK A01 T01520141  RH  097%=      5-min Rain = 0.01
KPAD 230545Z 36012G20KT 15/14 A3002 RMK A01 T01520140  RH  097%=      5-min Rain = 0.03
KPAD 230550Z 02010G16KT 15/14 A3002 RMK A01 T01510140  RH  097%=      5-min Rain = 0.02
KPAD 230555Z 01013KT 15/14 A3001 RMK A01 T01500139  RH  097%=      5-min Rain = 0
KPAD 230600Z 35010G17KT 15/14 A3002 RMK A01 T01500139  RH  097%=      5-min Rain = 0.01
KPAD 230605Z 00010KT 15/14 A3002 RMK A01 T01490138  RH  097%=      5-min Rain = 0.03
KPAD 230610Z 01010KT 15/14 A3002 RMK A01 T01490138  RH  097%=      5-min Rain = 0.02
KPAD 230615Z 02010KT 15/14 A3001 RMK A01 T01480137  RH  097%=      5-min Rain = 0.05
KPAD 230620Z 02010KT 15/14 A3001 RMK A01 T01470137  RH  098%=      5-min Rain = 0.02
KPAD 230625Z 01009KT 15/14 A3001 RMK A01 T01460136  RH  098%=      5-min Rain = 0.01
KPAD 230630Z 01009KT 15/14 A3001 RMK A01 T01460136  RH  098%=      5-min Rain = 0
KPAD 230635Z 01009KT 15/14 A3001 RMK A01 T01460137  RH  098%=      5-min Rain = 0
KPAD 230640Z 01009KT 15/14 A30 RMK A01 T01460137  RH  098%=      5-min Rain = 0.01
KPAD 230645Z 01008KT 15/14 A3001 RMK A01 T01460137  RH  098%=      5-min Rain = 0.01
KPAD 230650Z 00009KT 15/14 A30 RMK A01 T01460137  RH  098%=      5-min Rain = 0.04
KPAD 230655Z 01010KT 15/14 A30 RMK A01 T01460137  RH  098%=      5-min Rain = 0
KPAD 230700Z 01010KT 15/14 A30 RMK A01 T01460137  RH  098%=      5-min Rain = 0
KPAD 230705Z 00009KT 15/14 A30 RMK A01 T01460138  RH  099%=      5-min Rain = 0.01
KPAD 230710Z 36009KT 15/14 A30 RMK A01 T01470138  RH  099%=      5-min Rain = 0
KPAD 230715Z 34009KT 15/14 A3001 RMK A01 T01470139  RH  099%=      5-min Rain = 0
KPAD 230720Z 34008KT 15/14 A3001 RMK A01 T01480139  RH  099%=      5-min Rain = 0.01
KPAD 230725Z 01009KT 15/14 A30 RMK A01 T01470139  RH  099%=      5-min Rain = 0.01
KPAD 230730Z 36007KT 15/14 A30 RMK A01 T01470139  RH  099%=      5-min Rain = 0
KPAD 230735Z 01010KT 15/14 A2999 RMK A01 T01470138  RH  099%=      5-min Rain = 0.03
KPAD 230740Z 03011KT 15/14 A2999 RMK A01 T01460138  RH  099%=      5-min Rain = 0
KPAD 230745Z 02013KT 15/14 A2999 RMK A01 T01460137  RH  099%=      5-min Rain = 0
KPAD 230750Z 02011G17KT 14/14 A2999 RMK A01 T01430135  RH  099%=      5-min Rain = 0
KPAD 230755Z 02009KT 14/13 A30 RMK A01 T01420133  RH  099%=      5-min Rain = 0
KPAD 230800Z 02008KT 14/13 A30 RMK A01 T01400132  RH  099%=      5-min Rain = 0.01
KPAD 230805Z 03009KT 14/13 A2999 RMK A01 T01390131  RH  099%=      5-min Rain = 0.02
KPAD 230810Z 03010KT 14/13 A2999 RMK A01 T01390131  RH  099%=      5-min Rain = 0.01
KPAD 230815Z 04010KT 14/13 A2998 RMK A01 T01400132  RH  099%=      5-min Rain = 0.01
KPAD 230820Z 04009KT 14/13 A2998 RMK A01 T01400133  RH  099%=      5-min Rain = 0
KPAD 230825Z 04009KT 14/13 A2998 RMK A01 T01410133  RH  099%=      5-min Rain = 0
KPAD 230830Z 04008KT 14/13 A2999 RMK A01 T01420134  RH  099%=      5-min Rain = 0
KPAD 230835Z 04009KT 14/13 A2998 RMK A01 T01420134  RH  099%=      5-min Rain = 0
KPAD 230840Z 04009G14KT 14/14 A2998 RMK A01 T01430135  RH  099%=      5-min Rain = 0
KPAD 230845Z 04009KT 14/14 A2999 RMK A01 T01430135  RH  099%=      5-min Rain = 0
KPAD 230850Z 04009KT 14/14 A2999 RMK A01 T01430136  RH  099%=      5-min Rain = 0
KPAD 230855Z 05010KT 14/14 A2998 RMK A01 T01440136  RH  099%=      5-min Rain = 0.01
KPAD 230900Z 06012KT 14/14 A2998 RMK A01 T01430135  RH  099%=      5-min Rain = 0
KPAD 230905Z 05010KT 14/14 A2998 RMK A01 T01430135  RH  099%=      5-min Rain = 0
KPAD 230910Z 05009G14KT 14/13 A2998 RMK A01 T01420134  RH  099%=      5-min Rain = 0.01
KPAD 230915Z 04007KT 14/13 A2998 RMK A01 T01420134  RH  099%=      5-min Rain = 0
KPAD 230920Z 05009KT 14/13 A2998 RMK A01 T01420134  RH  099%=      5-min Rain = 0
KPAD 230925Z 06010KT 14/14 A2997 RMK A01 T01420135  RH  099%=      5-min Rain = 0
KPAD 230930Z 07008KT 14/14 A2997 RMK A01 T01430135  RH  099%=      5-min Rain = 0
KPAD 230935Z 07007KT 14/14 A2997 RMK A01 T01430135  RH  099%=      5-min Rain = 0
KPAD 230940Z 05006KT 14/14 A2998 RMK A01 T01430135  RH  099%=      5-min Rain = 0
KPAD 230945Z 06008KT 14/14 A2997 RMK A01 T01430136  RH  099%=      5-min Rain = 0.02
KPAD 230950Z 06009G14KT 14/14 A2997 RMK A01 T01440136  RH  099%=      5-min Rain = 0
KPAD 230955Z 06011KT 14/14 A2997 RMK A01 T01440136  RH  099%=      5-min Rain = 0
KPAD 231000Z 05010KT 14/14 A2997 RMK A01 T01440137  RH  099%=      5-min Rain = 0
KPAD 231005Z 05007KT 15/14 A2998 RMK A01 T01450137  RH  099%=      5-min Rain = 0
KPAD 231010Z 06006KT 15/14 A2998 RMK A01 T01450137  RH  099%=      5-min Rain = 0
KPAD 231015Z 04007KT 15/14 A2998 RMK A01 T01450138  RH  099%=      5-min Rain = 0
KPAD 231020Z 03007KT 15/14 A2998 RMK A01 T01450138  RH  099%=      5-min Rain = 0
KPAD 231025Z 03008KT 15/14 A2998 RMK A01 T01450138  RH  099%=      5-min Rain = 0
KPAD 231030Z 05009KT 15/14 A2998 RMK A01 T01450138  RH  099%=      5-min Rain = 0
KPAD 231035Z 06011G16KT 15/14 A2998 RMK A01 T01450138  RH  099%=      5-min Rain = 0
KPAD 231040Z 07009KT 15/14 A2998 RMK A01 T01450137  RH  099%=      5-min Rain = 0.01
KPAD 231045Z 06008KT 15/14 A2997 RMK A01 T01450138  RH  099%=      5-min Rain = 0
KPAD 231050Z 06009KT 15/14 A2998 RMK A01 T01450138  RH  099%=      5-min Rain = 0
KPAD 231055Z 05009KT 15/14 A2998 RMK A01 T01450138  RH  099%=      5-min Rain = 0
KPAD 231100Z 07009KT 15/14 A2998 RMK A01 T01450138  RH  099%=      5-min Rain = 0
KPAD 231105Z 06010KT 15/14 A2998 RMK A01 T01450137  RH  099%=      5-min Rain = 0
KPAD 231110Z 06010KT 15/14 A2998 RMK A01 T01450137  RH  099%=      5-min Rain = 0
KPAD 231115Z 06009KT 15/14 A2998 RMK A01 T01450137  RH  099%=      5-min Rain = 0
KPAD 231120Z 05009KT 15/14 A30 RMK A01 T01450137  RH  099%=      5-min Rain = 0
KPAD 231125Z 31009G14KT 15/14 A3004 RMK A01 T01450138  RH  099%=      5-min Rain = 0.04
KPAD 231130Z 35011KT 15/14 A3002 RMK A01 T01450138  RH  099%=      5-min Rain = 0.23
KPAD 231135Z 03009KT 14/14 A3001 RMK A01 T01430136  RH  099%=      5-min Rain = 0.23
KPAD 231140Z 05008KT 14/14 A3001 RMK A01 T01430135  RH  099%=      5-min Rain = 0.1
KPAD 231145Z 07010KT 14/14 A30 RMK A01 T01420135  RH  099%=      5-min Rain = 0.03
KPAD 231150Z 07008G15KT 14/14 A30 RMK A01 T01420135  RH  099%=      5-min Rain = 0.01
KPAD 231155Z 05006KT 14/13 A3001 RMK A01 T01410134  RH  099%=      5-min Rain = 0
KPAD 231200Z 05006KT 14/13 A3001 RMK A01 T01400134  RH  100%=      5-min Rain = 0.01
KPAD 231205Z 05005KT 14/13 A3001 RMK A01 T01400133  RH  100%=      5-min Rain = 0
KPAD 231210Z 07005KT 14/13 A3001 RMK A01 T01400133  RH  100%=      5-min Rain = 0
KPAD 231215Z 05005KT 14/13 A3001 RMK A01 T01390132  RH  100%=      5-min Rain = 0
KPAD 231220Z 05004KT 14/13 A3001 RMK A01 T01380132  RH  100%=      5-min Rain = 0
KPAD 231225Z 00004KT 14/13 A3001 RMK A01 T01380131  RH  100%=      5-min Rain = 0
KPAD 231230Z 36003KT 14/13 A3001 RMK A01 T01360130  RH  100%=      5-min Rain = 0
KPAD 231235Z 05003KT 14/13 A3001 RMK A01 T01370130  RH  100%=      5-min Rain = 0
KPAD 231240Z 07005KT 14/13 A3002 RMK A01 T01390132  RH  100%=      5-min Rain = 0
KPAD 231245Z 06005KT 14/13 A3001 RMK A01 T01400133  RH  100%=      5-min Rain = 0
KPAD 231250Z 05005KT 14/13 A3001 RMK A01 T01410134  RH  100%=      5-min Rain = 0
KPAD 231255Z 05006KT 14/13 A3001 RMK A01 T01410134  RH  100%=      5-min Rain = 0
KPAD 231300Z 07005KT 14/13 A3001 RMK A01 T01400134  RH  100%=      5-min Rain = 0
KPAD 231305Z 07005KT 14/13 A3001 RMK A01 T01410134  RH  100%=      5-min Rain = 0
KPAD 231310Z 05005KT 14/14 A3001 RMK A01 T01420135  RH  100%=      5-min Rain = 0
KPAD 231315Z 02006KT 14/14 A3002 RMK A01 T01430137  RH  100%=      5-min Rain = 0
KPAD 231320Z 02006KT 14/14 A3003 RMK A01 T01440137  RH  100%=      5-min Rain = 0
KPAD 231325Z 03005KT 14/14 A3003 RMK A01 T01430136  RH  100%=      5-min Rain = 0
KPAD 231330Z 02006KT 14/14 A3004 RMK A01 T01430136  RH  100%=      5-min Rain = 0
KPAD 231335Z 01006KT 14/14 A3004 RMK A01 T01440138  RH  100%=      5-min Rain = 0
KPAD 231340Z 02007KT 15/14 A3004 RMK A01 T01460139  RH  100%=      5-min Rain = 0
KPAD 231345Z 03006KT 15/14 A3004 RMK A01 T01460139  RH  100%=      5-min Rain = 0
KPAD 231350Z 03007KT 15/14 A3004 RMK A01 T01450139  RH  100%=      5-min Rain = 0
KPAD 231355Z 03007KT 15/14 A3004 RMK A01 T01460139  RH  100%=      5-min Rain = 0
KPAD 231400Z 03006KT 15/14 A3005 RMK A01 T01460139  RH  100%=      5-min Rain = 0
KPAD 231405Z 03006KT 15/14 A3005 RMK A01 T01460139  RH  100%=      5-min Rain = 0
KPAD 231410Z 02005KT 15/14 A3006 RMK A01 T01460139  RH  100%=      5-min Rain = 0
KPAD 231415Z 02004KT 15/14 A3006 RMK A01 T01460139  RH  100%=      5-min Rain = 0
KPAD 231420Z 02004KT 15/14 A3006 RMK A01 T01460139  RH  100%=      5-min Rain = 0
KPAD 231425Z 01005KT 15/14 A3006 RMK A01 T01460139  RH  100%=      5-min Rain = 0
KPAD 231430Z 00004KT 15/14 A3006 RMK A01 T01460139  RH  100%=      5-min Rain = 0
KPAD 231435Z 01005KT 15/14 A3006 RMK A01 T01480140  RH  100%=      5-min Rain = 0
KPAD 231440Z 01006KT 15/14 A3006 RMK A01 T01470140  RH  100%=      5-min Rain = 0
KPAD 231445Z 03007KT 15/14 A3005 RMK A01 T01470140  RH  100%=      5-min Rain = 0
KPAD 231450Z 03009KT 15/14 A3004 RMK A01 T01480141  RH  099%=      5-min Rain = 0
KPAD 231455Z 02007KT 15/14 A3004 RMK A01 T01480141  RH  099%=      5-min Rain = 0
KPAD 231500Z 03007KT 15/14 A3004 RMK A01 T01480140  RH  099%=      5-min Rain = 0
KPAD 231505Z 03005KT 15/14 A3006 RMK A01 T01470139  RH  099%=      5-min Rain = 0
KPAD 231510Z 02005KT 15/14 A3006 RMK A01 T01470140  RH  099%=      5-min Rain = 0
KPAD 231515Z 35001KT 15/14 A3008 RMK A01 T01490142  RH  099%=      5-min Rain = 0
KPAD 231520Z 32001KT 15/14 A3008 RMK A01 T01480141  RH  099%=      5-min Rain = 0
KPAD 231525Z 29002KT 15/14 A3009 RMK A01 T01480140  RH  099%=      5-min Rain = 0.01
KPAD 231530Z 33003KT 15/14 A3009 RMK A01 T01480140  RH  099%=      5-min Rain = 0
KPAD 231535Z 33005KT 15/14 A3008 RMK A01 T01490141  RH  099%=      5-min Rain = 0
KPAD 231540Z 35005KT 15/14 A3007 RMK A01 T01500142  RH  099%=      5-min Rain = 0
KPAD 231545Z 01005KT 15/14 A3007 RMK A01 T01510142  RH  099%=      5-min Rain = 0
KPAD 231550Z 01005KT 15/14 A3007 RMK A01 T01500142  RH  099%=      5-min Rain = 0
KPAD 231555Z 04006KT 15/14 A3006 RMK A01 T01500142  RH  099%=      5-min Rain = 0
KPAD 231600Z 03006KT 15/14 A3006 RMK A01 T01500141  RH  098%=      5-min Rain = 0
KPAD 231605Z 05007KT 15/14 A3005 RMK A01 T01490140  RH  098%=      5-min Rain = 0
KPAD 231610Z 02006KT 15/14 A3006 RMK A01 T01490140  RH  098%=      5-min Rain = 0
KPAD 231615Z 02005KT 15/14 A3007 RMK A01 T01490139  RH  098%=      5-min Rain = 0
KPAD 231620Z 06005KT 15/14 A3007 RMK A01 T01500141  RH  098%=      5-min Rain = 0
KPAD 231625Z 06006KT 15/14 A3007 RMK A01 T01510141  RH  098%=      5-min Rain = 0
KPAD 231630Z 07006KT 15/14 A3007 RMK A01 T01520142  RH  098%=      5-min Rain = 0
KPAD 231635Z 06008KT 15/14 A3006 RMK A01 T01530142  RH  097%=      5-min Rain = 0
KPAD 231640Z 05010KT 15/14 A3006 RMK A01 T01540142  RH  097%=      5-min Rain = 0
KPAD 231645Z 05009KT 16/14 A3005 RMK A01 T01550143  RH  097%=      5-min Rain = 0
KPAD 231650Z 06010KT 16/14 A3005 RMK A01 T01550142  RH  096%=      5-min Rain = 0
KPAD 231655Z 04011KT 16/14 A3004 RMK A01 T01550141  RH  096%=      5-min Rain = 0
KPAD 231700Z 05012KT 15/14 A3003 RMK A01 T01540139  RH  095%=      5-min Rain = 0
KPAD 231705Z 04013KT 16/14 A3001 RMK A01 T01560141  RH  095%=      5-min Rain = 0
KPAD 231710Z 03015KT 16/15 A3001 RMK A01 T01610145  RH  094%=      5-min Rain = 0
KPAD 231715Z 02014KT 16/14 A3001 RMK A01 T01630144  RH  093%=      5-min Rain = 0
KPAD 231720Z 02015KT 16/14 A3001 RMK A01 T01630142  RH  091%=      5-min Rain = 0
KPAD 231725Z 02012G18KT 17/14 A3001 RMK A01 T01650144  RH  091%=      5-min Rain = 0
KPAD 231730Z 01013KT 17/14 A3002 RMK A01 T01670143  RH  090%=      5-min Rain = 0
KPAD 231735Z 02011KT 17/14 A3002 RMK A01 T01690143  RH  089%=      5-min Rain = 0
KPAD 231740Z 02012KT 17/14 A3002 RMK A01 T01690141  RH  087%=      5-min Rain = 0
KPAD 231745Z 02011KT 17/14 A3002 RMK A01 T01670139  RH  087%=      5-min Rain = 0
KPAD 231750Z 02012KT 17/14 A3003 RMK A01 T01670140  RH  087%=      5-min Rain = 0
KPAD 231755Z 02012KT 16/14 A3003 RMK A01 T01630137  RH  088%=      5-min Rain = 0
KPAD 231800Z 02011KT 16/14 A3003 RMK A01 T01640139  RH  089%=      5-min Rain = 0
KPAD 231805Z 01011KT 17/14 A3004 RMK A01 T01650137  RH  087%=      5-min Rain = 0
KPAD 231810Z 01010KT 16/14 A3004 RMK A01 T01630137  RH  088%=      5-min Rain = 0
KPAD 231815Z 01013G18KT 16/13 A3004 RMK A01 T01610134  RH  087%=      5-min Rain = 0
KPAD 231820Z 01013KT 15/13 A3004 RMK A01 T01520129  RH  090%=      5-min Rain = 0
KPAD 231825Z 02012KT 15/13 A3005 RMK A01 T01490129  RH  092%=      5-min Rain = 0
KPAD 231830Z 02011KT 15/13 A3005 RMK A01 T01470129  RH  093%=      5-min Rain = 0
KPAD 231835Z 03011KT 15/13 A3004 RMK A01 T01480131  RH  094%=      5-min Rain = 0
KPAD 231840Z 02012KT 15/13 A3004 RMK A01 T01470131  RH  094%=      5-min Rain = 0
KPAD 231845Z 02010KT 15/13 A3004 RMK A01 T01460132  RH  095%=      5-min Rain = 0
KPAD 231850Z 02010KT 15/13 A3004 RMK A01 T01460132  RH  095%=      5-min Rain = 0
KPAD 231855Z 03009KT 15/13 A3004 RMK A01 T01470133  RH  095%=      5-min Rain = 0
KPAD 231900Z 02008KT 15/13 A3004 RMK A01 T01480134  RH  096%=      5-min Rain = 0
KPAD 231905Z 01009KT 15/13 A3004 RMK A01 T01460133  RH  096%=      5-min Rain = 0
KPAD 231910Z 01009KT 15/13 A3004 RMK A01 T01460133  RH  096%=      5-min Rain = 0
KPAD 231915Z 01009KT 15/13 A3004 RMK A01 T01450133  RH  096%=      5-min Rain = 0
KPAD 231920Z 01010KT 14/13 A3004 RMK A01 T01440131  RH  096%=      5-min Rain = 0
KPAD 231925Z 01008KT 14/13 A3004 RMK A01 T01440132  RH  096%=      5-min Rain = 0
KPAD 231930Z 01009KT 14/13 A3004 RMK A01 T01440132  RH  097%=      5-min Rain = 0
KPAD 231935Z 01009KT 14/13 A3004 RMK A01 T01430132  RH  096%=      5-min Rain = 0
KPAD 231940Z 00010KT 14/13 A3004 RMK A01 T01430131  RH  097%=      5-min Rain = 0
KPAD 231945Z 00011KT 14/13 A3004 RMK A01 T01430131  RH  097%=      5-min Rain = 0
KPAD 231950Z 36011KT 14/13 A3004 RMK A01 T01420131  RH  097%=      5-min Rain = 0
KPAD 231955Z 36011KT 14/13 A3004 RMK A01 T01400129  RH  097%=      5-min Rain = 0
KPAD 232000Z 36012KT 14/13 A3004 RMK A01 T01400128  RH  097%=      5-min Rain = 0
KPAD 232005Z 01011KT 14/13 A3004 RMK A01 T01380127  RH  097%=      5-min Rain = 0
KPAD 232010Z 01010KT 14/13 A3004 RMK A01 T01390128  RH  097%=      5-min Rain = 0
KPAD 232015Z 01011KT 14/13 A3003 RMK A01 T01400129  RH  097%=      5-min Rain = 0
KPAD 232020Z 00011KT 14/13 A3003 RMK A01 T01390129  RH  097%=      5-min Rain = 0
KPAD 232025Z 01009KT 14/13 A3003 RMK A01 T01400130  RH  097%=      5-min Rain = 0
KPAD 232030Z 01009KT 14/13 A3003 RMK A01 T01420131  RH  097%=      5-min Rain = 0
KPAD 232035Z 01010KT 14/13 A3003 RMK A01 T01410130  RH  097%=      5-min Rain = 0
KPAD 232040Z 01009KT 14/13 A3003 RMK A01 T01420130  RH  097%=      5-min Rain = 0
KPAD 232045Z 01010KT 14/13 A3003 RMK A01 T01410130  RH  097%=      5-min Rain = 0
KPAD 232050Z 02009KT 14/13 A3003 RMK A01 T01420131  RH  097%=      5-min Rain = 0
KPAD 232055Z 01010KT 14/13 A3003 RMK A01 T01420130  RH  096%=      5-min Rain = 0
KPAD 232100Z 01010KT 14/13 A3003 RMK A01 T01420130  RH  096%=      5-min Rain = 0
KPAD 232105Z 01010KT 14/13 A3003 RMK A01 T01400127  RH  096%=      5-min Rain = 0
KPAD 232110Z 01010KT 14/13 A3003 RMK A01 T01400127  RH  096%=      5-min Rain = 0
KPAD 232115Z 02010KT 14/13 A3002 RMK A01 T01400127  RH  095%=      5-min Rain = 0
KPAD 232120Z 02009KT 14/13 A3002 RMK A01 T01410128  RH  095%=      5-min Rain = 0
KPAD 232125Z 02011KT 14/13 A3002 RMK A01 T01420127  RH  094%=      5-min Rain = 0
KPAD 232130Z 01011KT 14/13 A3002 RMK A01 T01420126  RH  094%=      5-min Rain = 0
KPAD 232135Z 01010KT 14/13 A3002 RMK A01 T01420126  RH  093%=      5-min Rain = 0
KPAD 232140Z 00011KT 14/13 A3002 RMK A01 T01420125  RH  093%=      5-min Rain = 0
KPAD 232145Z 01011KT 14/12 A3002 RMK A01 T01420124  RH  093%=      5-min Rain = 0
KPAD 232150Z 01009KT 14/13 A3002 RMK A01 T01430125  RH  093%=      5-min Rain = 0
KPAD 232155Z 02010KT 14/13 A3001 RMK A01 T01440125  RH  092%=      5-min Rain = 0
KPAD 232200Z 02010KT 14/13 A3001 RMK A01 T01440125  RH  092%=      5-min Rain = 0
KPAD 232205Z 01010KT 15/13 A3001 RMK A01 T01450125  RH  091%=      5-min Rain = 0
KPAD 232210Z 01011KT 15/13 A3001 RMK A01 T01450125  RH  091%=      5-min Rain = 0
KPAD 232215Z 01012KT 15/12 A3001 RMK A01 T01450124  RH  091%=      5-min Rain = 0
KPAD 232220Z 01011G16KT 15/12 A3001 RMK A01 T01450124  RH  091%=      5-min Rain = 0
KPAD 232225Z 01012KT 15/12 A3001 RMK A01 T01450124  RH  091%=      5-min Rain = 0
KPAD 232230Z 01011KT 15/12 A30 RMK A01 T01450124  RH  090%=      5-min Rain = 0
KPAD 232235Z 00012KT 15/12 A30 RMK A01 T01450123  RH  090%=      5-min Rain = 0
KPAD 232240Z 00011KT 15/12 A3001 RMK A01 T01450123  RH  090%=      5-min Rain = 0
KPAD 232245Z 01009KT 15/12 A3001 RMK A01 T01460123  RH  090%=      5-min Rain = 0
KPAD 232250Z 00009KT 15/12 A3001 RMK A01 T01470124  RH  090%=      5-min Rain = 0
KPAD 232255Z 01011KT 15/12 A3001 RMK A01 T01470123  RH  089%=      5-min Rain = 0
KPAD 232300Z 01011KT 15/12 A3001 RMK A01 T01460121  RH  088%=      5-min Rain = 0
KPAD 232305Z 01010KT 15/12 A3001 RMK A01 T01460120  RH  088%=      5-min Rain = 0
KPAD 232310Z 01009KT 15/12 A30 RMK A01 T01460120  RH  088%=      5-min Rain = 0
KPAD 232315Z 01009KT 15/12 A30 RMK A01 T01470121  RH  087%=      5-min Rain = 0
KPAD 232320Z 01009KT 15/12 A30 RMK A01 T01480120  RH  087%=      5-min Rain = 0
KPAD 232325Z 01009KT 15/12 A30 RMK A01 T01480121  RH  087%=      5-min Rain = 0
KPAD 232330Z 01008KT 15/12 A30 RMK A01 T01500122  RH  087%=      5-min Rain = 0
KPAD 232335Z 01007KT 15/12 A3001 RMK A01 T01500122  RH  086%=      5-min Rain = 0
KPAD 232340Z 01008KT 15/12 A3001 RMK A01 T01500122  RH  087%=      5-min Rain = 0
KPAD 232345Z 00011KT 15/12 A30 RMK A01 T01500121  RH  086%=      5-min Rain = 0
KPAD 232350Z 00010KT 15/12 A2999 RMK A01 T01500121  RH  086%=      5-min Rain = 0
KPAD 232355Z 01009KT 15/12 A2999 RMK A01 T01500121  RH  086%=      5-min Rain = 0
KPAD 240000Z 01009KT 15/12 A30 RMK A01 T01490119  RH  086%=      5-min Rain = 0
KPAD 240005Z 01010KT 15/12 A30 RMK A01 T01480119  RH  086%=      5-min Rain = 0
KPAD 240010Z 01010KT 15/12 A2998 RMK A01 T01480120  RH  087%=      5-min Rain = 0
KPAD 240015Z 01008G13KT 15/12 A2999 RMK A01 T01490122  RH  087%=      5-min Rain = 0
KPAD 240020Z 03008KT 15/12 A30 RMK A01 T01490122  RH  087%=      5-min Rain = 0
KPAD 240025Z 03008KT 15/12 A30 RMK A01 T01480121  RH  087%=      5-min Rain = 0
KPAD 240030Z 02009KT 15/12 A30 RMK A01 T01480121  RH  087%=      5-min Rain = 0
KPAD 240035Z 02009KT 15/12 A2999 RMK A01 T01480122  RH  088%=      5-min Rain = 0
KPAD 240040Z 04009KT 15/12 A30 RMK A01 T01480121  RH  087%=      5-min Rain = 0
KPAD 240045Z 03009KT 15/12 A2999 RMK A01 T01480120  RH  087%=      5-min Rain = 0
KPAD 240050Z 03009KT 15/12 A2999 RMK A01 T01470120  RH  087%=      5-min Rain = 0
KPAD 240055Z 02009KT 15/12 A2999 RMK A01 T01470120  RH  087%=      5-min Rain = 0
KPAD 240100Z 02009KT 15/12 A2999 RMK A01 T01470119  RH  087%=      5-min Rain = 0
KPAD 240105Z 02008KT 15/12 A30 RMK A01 T01460120  RH  087%=      5-min Rain = 0
KPAD 240110Z 02007KT 15/12 A2999 RMK A01 T01460120  RH  088%=      5-min Rain = 0
KPAD 240115Z 01006KT 15/12 A30 RMK A01 T01460121  RH  088%=      5-min Rain = 0
KPAD 240120Z 00006KT 15/12 A30 RMK A01 T01450120  RH  088%=      5-min Rain = 0
KPAD 240125Z 36007KT 15/12 A30 RMK A01 T01450120  RH  088%=      5-min Rain = 0
KPAD 240130Z 00007KT 14/12 A30 RMK A01 T01440120  RH  088%=      5-min Rain = 0
KPAD 240135Z 01007KT 14/12 A30 RMK A01 T01430119  RH  089%=      5-min Rain = 0
KPAD 240140Z 00008KT 14/12 A30 RMK A01 T01430120  RH  089%=      5-min Rain = 0
KPAD 240145Z 36007KT 14/12 A30 RMK A01 T01430120  RH  089%=      5-min Rain = 0
KPAD 240150Z 00007KT 14/12 A2999 RMK A01 T01420120  RH  090%=      5-min Rain = 0
KPAD 240155Z 00008KT 14/12 A2999 RMK A01 T01420120  RH  090%=      5-min Rain = 0
KPAD 240200Z 00007KT 14/12 A30 RMK A01 T01410120  RH  090%=      5-min Rain = 0
KPAD 240205Z 00006KT 14/12 A30 RMK A01 T01410120  RH  090%=      5-min Rain = 0
KPAD 240210Z 01006KT 14/12 A30 RMK A01 T01410119  RH  090%=      5-min Rain = 0
KPAD 240215Z 01007KT 14/12 A30 RMK A01 T01400119  RH  090%=      5-min Rain = 0
KPAD 240220Z 01008KT 14/12 A2999 RMK A01 T01400119  RH  091%=      5-min Rain = 0
KPAD 240225Z 01007KT 14/12 A2999 RMK A01 T01390119  RH  091%=      5-min Rain = 0
KPAD 240230Z 02006KT 14/12 A30 RMK A01 T01390119  RH  091%=      5-min Rain = 0
KPAD 240235Z 02006KT 14/12 A30 RMK A01 T01390119  RH  091%=      5-min Rain = 0
KPAD 240240Z 01007KT 14/12 A30 RMK A01 T01380119  RH  091%=      5-min Rain = 0
KPAD 240245Z 00007KT 14/12 A30 RMK A01 T01370118  RH  092%=      5-min Rain = 0
KPAD 240250Z 00006KT 14/12 A30 RMK A01 T01360118  RH  092%=      5-min Rain = 0
KPAD 240255Z 36005KT 14/12 A3001 RMK A01 T01360118  RH  092%=      5-min Rain = 0
KPAD 240300Z 00006KT 14/12 A30 RMK A01 T01350118  RH  093%=      5-min Rain = 0
KPAD 240305Z 02005KT 14/12 A30 RMK A01 T01350118  RH  093%=      5-min Rain = 0
KPAD 240310Z 03005KT 14/12 A30 RMK A01 T01350118  RH  093%=      5-min Rain = 0
KPAD 240315Z 02004KT 13/12 A30 RMK A01 T01340118  RH  093%=      5-min Rain = 0
KPAD 240320Z 04003KT 13/12 A30 RMK A01 T01330117  RH  093%=      5-min Rain = 0
KPAD 240325Z 08004KT 13/12 A3001 RMK A01 T01310115  RH  093%=      5-min Rain = 0
KPAD 240330Z 09003KT 13/11 A3001 RMK A01 T01290114  RH  094%=      5-min Rain = 0
KPAD 240335Z 07002KT 13/12 A3001 RMK A01 T01290115  RH  094%=      5-min Rain = 0
KPAD 240340Z 12002KT 13/12 A3002 RMK A01 T01300116  RH  094%=      5-min Rain = 0
KPAD 240345Z 15001KT 13/12 A3003 RMK A01 T01300116  RH  095%=      5-min Rain = 0
KPAD 240350Z 14000KT 13/12 A3002 RMK A01 T01310117  RH  095%=      5-min Rain = 0
KPAD 240355Z 05000KT 13/12 A3002 RMK A01 T01300117  RH  095%=      5-min Rain = 0
KPAD 240400Z 01003KT 13/12 A3001 RMK A01 T01300117  RH  095%=      5-min Rain = 0
KPAD 240405Z 33005KT 13/12 A30 RMK A01 T01290115  RH  095%=      5-min Rain = 0
KPAD 240410Z 32005KT 13/12 A30 RMK A01 T01270115  RH  095%=      5-min Rain = 0
KPAD 240415Z 33005KT 13/12 A3001 RMK A01 T01270115  RH  096%=      5-min Rain = 0
KPAD 240420Z 31006KT 13/12 A3001 RMK A01 T01280116  RH  096%=      5-min Rain = 0
KPAD 240425Z 31005KT 13/12 A3001 RMK A01 T01270116  RH  096%=      5-min Rain = 0
KPAD 240430Z 31004KT 13/12 A3002 RMK A01 T01270115  RH  096%=      5-min Rain = 0
KPAD 240435Z 31004KT 13/12 A3002 RMK A01 T01260115  RH  096%=      5-min Rain = 0
KPAD 240440Z 31005KT 13/12 A3002 RMK A01 T01260115  RH  096%=      5-min Rain = 0
KPAD 240445Z 30005KT 13/12 A3002 RMK A01 T01260115  RH  096%=      5-min Rain = 0
KPAD 240450Z 31006KT 13/12 A3002 RMK A01 T01260115  RH  096%=      5-min Rain = 0
KPAD 240455Z 32007KT 13/12 A3001 RMK A01 T01260115  RH  096%=      5-min Rain = 0

Page generated in 0.0118 seconds.